createdAt,value
2019-04-07T00:00:18.729Z,49.10
2019-04-07T00:01:18.743Z,47.90
2019-04-07T00:02:18.764Z,45.90
2019-04-07T00:03:18.791Z,43.40
2019-04-07T00:04:18.803Z,47.60
2019-04-07T00:05:18.825Z,48.20
2019-04-07T00:06:19.081Z,48.10
2019-04-07T00:07:18.978Z,46.00
2019-04-07T00:08:18.876Z,46.10
2019-04-07T00:09:18.956Z,49.10
2019-04-07T00:10:19.185Z,44.60
2019-04-07T00:11:19.543Z,47.10
2019-04-07T00:12:18.956Z,51.40
2019-04-07T00:13:18.968Z,49.80
2019-04-07T00:14:18.983Z,47.80
2019-04-07T00:15:19.004Z,49.80
2019-04-07T00:16:19.024Z,48.30
2019-04-07T00:17:19.236Z,47.90
2019-04-07T00:18:19.160Z,51.80
2019-04-07T00:19:19.094Z,53.50
2019-04-07T00:20:19.816Z,55.20
2019-04-07T00:21:19.116Z,50.90
2019-04-07T00:22:19.137Z,53.00
2019-04-07T00:23:19.151Z,50.20
2019-04-07T00:24:19.314Z,49.20
2019-04-07T00:25:19.324Z,50.80
2019-04-07T00:26:19.208Z,47.40
2019-04-07T00:27:19.224Z,47.30
2019-04-07T00:28:19.612Z,51.60
2019-04-07T00:29:19.559Z,48.40
2019-04-07T00:30:19.781Z,49.40
2019-04-07T00:31:19.440Z,49.80
2019-04-07T00:32:19.984Z,50.80
2019-04-07T00:33:19.333Z,47.20
2019-04-07T00:34:19.354Z,49.70
2019-04-07T00:35:26.804Z,54.00
2019-04-07T00:36:19.396Z,48.80
2019-04-07T00:37:19.416Z,52.20
2019-04-07T00:38:19.437Z,47.30
2019-04-07T00:39:19.463Z,51.20
2019-04-07T00:40:19.686Z,48.50
2019-04-07T00:41:19.969Z,50.80
2019-04-07T00:42:19.497Z,48.40
2019-04-07T00:43:19.927Z,50.50
2019-04-07T00:44:19.906Z,54.10
2019-04-07T00:45:19.550Z,48.50
2019-04-07T00:46:20.053Z,46.10
2019-04-07T00:47:19.600Z,50.10
2019-04-07T00:48:19.607Z,50.10
2019-04-07T00:49:19.626Z,53.60
2019-04-07T00:50:19.651Z,50.00
2019-04-07T00:51:20.571Z,49.30
2019-04-07T00:52:19.681Z,54.90
2019-04-07T00:53:20.037Z,52.20
2019-04-07T00:54:19.717Z,52.40
2019-04-07T00:55:19.736Z,50.50
2019-04-07T00:56:20.452Z,52.80
2019-04-07T00:57:19.910Z,51.60
2019-04-07T00:58:19.794Z,50.50
2019-04-07T00:59:19.807Z,53.30
2019-04-07T01:00:20.335Z,56.00
2019-04-07T01:01:19.852Z,51.10
2019-04-07T01:02:19.862Z,54.40
2019-04-07T01:03:19.963Z,50.30
2019-04-07T01:04:19.969Z,54.10
2019-04-07T01:05:20.613Z,48.60
2019-04-07T01:06:19.946Z,51.90
2019-04-07T01:07:20.147Z,51.40
2019-04-07T01:08:20.593Z,49.50
2019-04-07T01:09:19.989Z,50.40
2019-04-07T01:10:20.510Z,53.30
2019-04-07T01:11:20.120Z,52.50
2019-04-07T01:12:20.428Z,54.70
2019-04-07T01:13:20.059Z,53.70
2019-04-07T01:14:20.104Z,49.20
2019-04-07T01:15:20.258Z,51.10
2019-04-07T01:16:20.735Z,51.20
2019-04-07T01:17:20.133Z,53.50
2019-04-07T01:18:20.632Z,50.20
2019-04-07T01:19:20.170Z,48.00
2019-04-07T01:20:20.660Z,49.70
2019-04-07T01:21:20.424Z,52.70
2019-04-07T01:22:20.767Z,48.40
2019-04-07T01:23:20.933Z,48.00
2019-04-07T01:24:20.980Z,54.60
2019-04-07T01:25:20.374Z,49.80
2019-04-07T01:26:20.295Z,51.30
2019-04-07T01:27:20.417Z,53.80
2019-04-07T01:28:20.878Z,52.30
2019-04-07T01:29:20.945Z,50.00
2019-04-07T01:30:20.366Z,50.60
2019-04-07T01:31:20.939Z,50.90
2019-04-07T01:32:20.401Z,49.10
2019-04-07T01:33:20.734Z,51.20
2019-04-07T01:34:20.664Z,49.20
2019-04-07T01:35:20.457Z,53.00
2019-04-07T01:36:20.483Z,53.00
2019-04-07T01:37:20.954Z,47.40
2019-04-07T01:38:20.510Z,51.90
2019-04-07T01:39:20.535Z,49.90
2019-04-07T01:40:21.035Z,52.60
2019-04-07T01:41:20.571Z,51.30
2019-04-07T01:42:21.313Z,50.90
2019-04-07T01:43:20.615Z,50.10
2019-04-07T01:44:20.619Z,52.00
2019-04-07T01:45:20.666Z,56.00
2019-04-07T01:46:20.721Z,48.60
2019-04-07T01:47:21.050Z,52.40
2019-04-07T01:48:20.690Z,49.50
2019-04-07T01:49:20.710Z,51.00
2019-04-07T01:50:21.067Z,52.80
2019-04-07T01:51:21.104Z,50.50
2019-04-07T01:52:21.194Z,49.10
2019-04-07T01:53:21.314Z,48.70
2019-04-07T01:54:20.839Z,49.00
2019-04-07T01:55:20.824Z,47.60
2019-04-07T01:56:20.843Z,52.30
2019-04-07T01:57:20.985Z,52.70
2019-04-07T01:58:20.871Z,48.50
2019-04-07T01:59:20.966Z,51.50
2019-04-07T02:00:21.538Z,54.80
2019-04-07T02:01:20.947Z,50.60
2019-04-07T02:02:20.943Z,47.30
2019-04-07T02:03:20.970Z,52.10
2019-04-07T02:04:21.932Z,48.90
2019-04-07T02:05:20.998Z,49.40
2019-04-07T02:06:21.132Z,51.80
2019-04-07T02:07:22.150Z,49.70
2019-04-07T02:08:21.059Z,52.60
2019-04-07T02:09:21.488Z,52.60
2019-04-07T02:10:21.088Z,50.00
2019-04-07T02:11:21.226Z,52.40
2019-04-07T02:12:21.175Z,54.40
2019-04-07T02:13:21.467Z,49.50
2019-04-07T02:14:21.376Z,46.90
2019-04-07T02:15:21.738Z,47.70
2019-04-07T02:16:21.244Z,47.80
2019-04-07T02:17:21.869Z,46.30
2019-04-07T02:18:21.233Z,53.50
2019-04-07T02:19:21.626Z,46.00
2019-04-07T02:20:21.267Z,50.40
2019-04-07T02:21:21.558Z,50.50
2019-04-07T02:22:21.314Z,50.20
2019-04-07T02:23:21.326Z,50.10
2019-04-07T02:24:21.342Z,47.20
2019-04-07T02:25:21.952Z,51.20
2019-04-07T02:26:21.514Z,50.00
2019-04-07T02:27:21.400Z,53.20
2019-04-07T02:28:21.839Z,52.90
2019-04-07T02:29:21.936Z,51.60
2019-04-07T02:30:21.728Z,48.30
2019-04-07T02:31:22.482Z,48.80
2019-04-07T02:32:21.586Z,49.60
2019-04-07T02:33:22.521Z,53.20
2019-04-07T02:34:22.003Z,52.70
2019-04-07T02:35:21.546Z,48.90
2019-04-07T02:36:25.716Z,53.70
2019-04-07T02:37:22.552Z,50.20
2019-04-07T02:38:21.590Z,52.60
2019-04-07T02:39:21.610Z,51.50
2019-04-07T02:40:21.630Z,50.80
2019-04-07T02:41:21.648Z,53.00
2019-04-07T02:42:22.727Z,52.00
2019-04-07T02:43:21.680Z,51.60
2019-04-07T02:44:22.050Z,51.50
2019-04-07T02:45:21.895Z,53.60
2019-04-07T02:46:21.733Z,48.90
2019-04-07T02:47:22.601Z,49.60
2019-04-07T02:48:22.104Z,50.90
2019-04-07T02:49:21.794Z,49.50
2019-04-07T02:50:22.061Z,54.50
2019-04-07T02:51:22.079Z,51.00
2019-04-07T02:52:22.864Z,53.80
2019-04-07T02:53:21.857Z,48.90
2019-04-07T02:54:22.682Z,51.40
2019-04-07T02:55:21.957Z,49.20
2019-04-07T02:56:22.533Z,51.50
2019-04-07T02:57:22.224Z,53.00
2019-04-07T02:58:22.768Z,50.80
2019-04-07T02:59:22.986Z,51.00
2019-04-07T03:00:22.274Z,50.70
2019-04-07T03:01:22.123Z,51.30
2019-04-07T03:02:22.053Z,49.70
2019-04-07T03:03:22.786Z,50.30
2019-04-07T03:04:23.061Z,56.00
2019-04-07T03:05:22.302Z,51.40
2019-04-07T03:06:37.787Z,53.90
2019-04-07T03:07:22.110Z,53.60
2019-04-07T03:08:22.617Z,49.20
2019-04-07T03:09:22.145Z,52.70
2019-04-07T03:10:22.814Z,47.40
2019-04-07T03:11:22.432Z,47.00
2019-04-07T03:12:23.315Z,54.20
2019-04-07T03:13:22.925Z,51.10
2019-04-07T03:14:22.234Z,49.10
2019-04-07T03:15:22.715Z,48.70
2019-04-07T03:16:22.472Z,52.20
2019-04-07T03:17:23.211Z,51.80
2019-04-07T03:18:24.212Z,48.90
2019-04-07T03:19:23.382Z,50.80
2019-04-07T03:20:23.114Z,48.00
2019-04-07T03:21:22.584Z,48.00
2019-04-07T03:22:22.374Z,51.10
2019-04-07T03:23:22.403Z,51.80
2019-04-07T03:24:22.442Z,55.40
2019-04-07T03:25:22.431Z,52.30
2019-04-07T03:26:22.447Z,47.10
2019-04-07T03:27:22.465Z,53.50
2019-04-07T03:28:22.739Z,50.20
2019-04-07T03:29:22.499Z,54.40
2019-04-07T03:30:25.163Z,50.80
2019-04-07T03:31:23.945Z,51.00
2019-04-07T03:32:25.994Z,51.30
2019-04-07T03:33:23.636Z,54.70
2019-04-07T03:34:24.113Z,51.50
2019-04-07T03:35:25.722Z,49.50
2019-04-07T03:36:24.301Z,49.50
2019-04-07T03:37:35.133Z,49.50
2019-04-07T03:38:22.657Z,50.90
2019-04-07T03:39:22.675Z,48.40
2019-04-07T03:40:22.692Z,51.70
2019-04-07T03:41:23.705Z,50.60
2019-04-07T03:42:23.190Z,50.00
2019-04-07T03:43:23.767Z,53.80
2019-04-07T03:44:22.764Z,51.10
2019-04-07T03:45:22.790Z,51.80
2019-04-07T03:46:22.805Z,50.60
2019-04-07T03:47:23.489Z,47.10
2019-04-07T03:48:23.137Z,48.00
2019-04-07T03:49:23.495Z,48.30
2019-04-07T03:50:23.082Z,45.10
2019-04-07T03:51:22.886Z,47.40
2019-04-07T03:52:22.905Z,47.40
2019-04-07T03:53:22.920Z,49.50
2019-04-07T03:54:24.123Z,47.50
2019-04-07T03:55:22.956Z,49.00
2019-04-07T03:56:23.194Z,49.20
2019-04-07T03:57:24.118Z,46.90
2019-04-07T03:58:23.006Z,47.70
2019-04-07T03:59:23.026Z,47.30
2019-04-07T04:00:23.076Z,51.40
2019-04-07T04:01:23.991Z,54.70
2019-04-07T04:02:23.086Z,51.80
2019-04-07T04:03:23.096Z,47.80
2019-04-07T04:04:24.149Z,48.10
2019-04-07T04:05:24.225Z,50.50
2019-04-07T04:06:23.150Z,50.10
2019-04-07T04:07:31.334Z,51.60
2019-04-07T04:08:23.192Z,50.90
2019-04-07T04:09:24.115Z,47.10
2019-04-07T04:10:23.702Z,46.40
2019-04-07T04:11:23.634Z,50.80
2019-04-07T04:12:23.254Z,51.10
2019-04-07T04:13:23.271Z,51.90
2019-04-07T04:14:23.943Z,51.00
2019-04-07T04:15:24.186Z,51.70
2019-04-07T04:16:23.455Z,51.40
2019-04-07T04:17:23.341Z,50.80
2019-04-07T04:18:23.359Z,50.70
2019-04-07T04:19:23.374Z,49.30
2019-04-07T04:20:23.878Z,54.00
2019-04-07T04:21:24.277Z,53.30
2019-04-07T04:22:23.431Z,53.80
2019-04-07T04:23:23.446Z,50.80
2019-04-07T04:24:23.475Z,50.30
2019-04-07T04:25:24.451Z,49.70
2019-04-07T04:26:23.779Z,52.30
2019-04-07T04:27:23.811Z,47.90
2019-04-07T04:28:23.771Z,52.60
2019-04-07T04:29:24.611Z,51.60
2019-04-07T04:30:23.625Z,52.10
2019-04-07T04:31:23.583Z,50.90
2019-04-07T04:32:23.603Z,47.50
2019-04-07T04:33:23.652Z,50.00
2019-04-07T04:34:23.824Z,50.50
2019-04-07T04:35:24.570Z,52.90
2019-04-07T04:36:23.989Z,51.40
2019-04-07T04:37:37.685Z,51.20
2019-04-07T04:38:24.199Z,53.60
2019-04-07T04:39:23.730Z,47.80
2019-04-07T04:40:24.271Z,49.40
2019-04-07T04:41:23.757Z,53.70
2019-04-07T04:42:24.829Z,51.10
2019-04-07T04:43:23.801Z,53.60
2019-04-07T04:44:24.199Z,53.50
2019-04-07T04:45:24.583Z,53.60
2019-04-07T04:46:24.035Z,50.70
2019-04-07T04:47:23.863Z,53.90
2019-04-07T04:48:23.880Z,49.60
2019-04-07T04:49:23.908Z,51.50
2019-04-07T04:50:23.918Z,50.70
2019-04-07T04:51:24.057Z,49.60
2019-04-07T04:52:24.100Z,55.00
2019-04-07T04:53:24.231Z,48.90
2019-04-07T04:54:24.573Z,55.00
2019-04-07T04:55:24.283Z,50.60
2019-04-07T04:56:24.289Z,49.70
2019-04-07T04:57:24.032Z,53.60
2019-04-07T04:58:24.763Z,51.10
2019-04-07T04:59:24.073Z,51.00
2019-04-07T05:00:24.458Z,51.80
2019-04-07T05:01:24.104Z,52.10
2019-04-07T05:02:24.468Z,51.80
2019-04-07T05:03:24.920Z,50.90
2019-04-07T05:04:24.215Z,50.60
2019-04-07T05:05:24.387Z,50.80
2019-04-07T05:06:24.337Z,53.70
2019-04-07T05:07:24.505Z,50.30
2019-04-07T05:08:24.719Z,49.70
2019-04-07T05:09:24.532Z,53.80
2019-04-07T05:10:24.813Z,52.90
2019-04-07T05:11:24.817Z,48.70
2019-04-07T05:12:24.442Z,52.00
2019-04-07T05:13:25.034Z,53.10
2019-04-07T05:14:24.325Z,48.80
2019-04-07T05:15:24.350Z,51.30
2019-04-07T05:16:24.363Z,48.00
2019-04-07T05:17:24.383Z,51.50
2019-04-07T05:18:24.400Z,50.50
2019-04-07T05:19:24.414Z,47.10
2019-04-07T05:20:25.179Z,51.30
2019-04-07T05:21:25.020Z,46.40
2019-04-07T05:22:24.466Z,44.00
2019-04-07T05:23:25.112Z,48.30
2019-04-07T05:24:24.755Z,52.80
2019-04-07T05:25:24.929Z,43.80
2019-04-07T05:26:24.535Z,45.60
2019-04-07T05:27:25.106Z,49.40
2019-04-07T05:28:24.575Z,42.40
2019-04-07T05:29:24.788Z,44.70
2019-04-07T05:30:24.602Z,48.10
2019-04-07T05:31:24.683Z,42.30
2019-04-07T05:32:25.199Z,43.90
2019-04-07T05:33:24.654Z,47.10
2019-04-07T05:34:24.674Z,46.50
2019-04-07T05:35:24.998Z,45.60
2019-04-07T05:36:25.245Z,45.30
2019-04-07T05:37:25.324Z,44.90
2019-04-07T05:38:25.579Z,45.90
2019-04-07T05:39:25.014Z,40.70
2019-04-07T05:40:24.779Z,44.80
2019-04-07T05:41:24.793Z,47.10
2019-04-07T05:42:24.813Z,40.50
2019-04-07T05:43:25.211Z,41.80
2019-04-07T05:44:24.845Z,40.60
2019-04-07T05:45:25.450Z,40.70
2019-04-07T05:46:25.078Z,43.10
2019-04-07T05:47:25.504Z,41.20
2019-04-07T05:48:24.975Z,44.80
2019-04-07T05:49:24.933Z,42.00
2019-04-07T05:50:27.432Z,42.00
2019-04-07T05:51:25.057Z,37.90
2019-04-07T05:52:24.993Z,41.90
2019-04-07T05:53:25.411Z,42.00
2019-04-07T05:54:25.023Z,38.40
2019-04-07T05:55:25.040Z,37.40
2019-04-07T05:56:28.122Z,38.10
2019-04-07T05:57:25.082Z,39.70
2019-04-07T05:58:25.098Z,38.10
2019-04-07T05:59:25.411Z,39.70
2019-04-07T06:00:25.140Z,38.90
2019-04-07T06:01:25.883Z,36.30
2019-04-07T06:02:25.602Z,39.20
2019-04-07T06:03:25.420Z,38.30
2019-04-07T06:04:26.015Z,35.70
2019-04-07T06:05:25.494Z,35.70
2019-04-07T06:06:25.877Z,42.00
2019-04-07T06:07:28.768Z,37.50
2019-04-07T06:08:34.043Z,33.80
2019-04-07T06:09:25.285Z,36.10
2019-04-07T06:10:28.506Z,36.20
2019-04-07T06:11:25.899Z,33.50
2019-04-07T06:12:25.345Z,36.20
2019-04-07T06:13:25.355Z,35.00
2019-04-07T06:14:25.964Z,35.30
2019-04-07T06:15:25.850Z,36.70
2019-04-07T06:16:25.410Z,33.00
2019-04-07T06:17:26.365Z,37.10
2019-04-07T06:18:26.023Z,34.30
2019-04-07T06:19:26.035Z,35.10
2019-04-07T06:20:25.483Z,39.70
2019-04-07T06:21:26.186Z,33.70
2019-04-07T06:22:25.918Z,35.00
2019-04-07T06:23:28.569Z,36.20
2019-04-07T06:24:26.859Z,36.80
2019-04-07T06:25:25.577Z,35.70
2019-04-07T06:26:25.632Z,33.40
2019-04-07T06:27:25.607Z,33.60
2019-04-07T06:28:26.621Z,32.80
2019-04-07T06:29:26.476Z,33.40
2019-04-07T06:30:28.086Z,31.50
2019-04-07T06:31:26.347Z,34.70
2019-04-07T06:32:25.697Z,34.20
2019-04-07T06:33:26.245Z,34.70
2019-04-07T06:34:25.778Z,33.80
2019-04-07T06:35:26.045Z,31.70
2019-04-07T06:36:26.808Z,35.10
2019-04-07T06:37:29.163Z,36.00
2019-04-07T06:38:33.045Z,31.50
2019-04-07T06:39:26.588Z,33.80
2019-04-07T06:40:25.844Z,30.80
2019-04-07T06:41:29.879Z,34.60
2019-04-07T06:42:26.672Z,32.70
2019-04-07T06:43:25.894Z,30.90
2019-04-07T06:44:25.922Z,32.80
2019-04-07T06:45:25.934Z,34.30
2019-04-07T06:46:28.495Z,35.70
2019-04-07T06:47:26.037Z,30.90
2019-04-07T06:48:26.707Z,31.30
2019-04-07T06:49:28.437Z,29.60
2019-04-07T06:50:26.026Z,31.00
2019-04-07T06:51:29.212Z,30.20
2019-04-07T06:52:26.061Z,30.80
2019-04-07T06:53:26.078Z,33.40
2019-04-07T06:54:26.095Z,28.90
2019-04-07T06:55:28.479Z,32.30
2019-04-07T06:56:26.137Z,31.00
2019-04-07T06:57:26.583Z,32.30
2019-04-07T06:58:26.618Z,30.90
2019-04-07T06:59:26.214Z,31.80
2019-04-07T07:00:26.211Z,29.10
2019-04-07T07:01:26.615Z,30.00
2019-04-07T07:02:29.075Z,28.50
2019-04-07T07:03:26.977Z,30.10
2019-04-07T07:04:26.522Z,29.70
2019-04-07T07:05:26.742Z,33.20
2019-04-07T07:06:26.839Z,30.70
2019-04-07T07:07:26.336Z,29.10
2019-04-07T07:08:26.737Z,31.50
2019-04-07T07:09:27.772Z,29.10
2019-04-07T07:10:30.153Z,27.70
2019-04-07T07:11:29.257Z,31.20
2019-04-07T07:12:32.829Z,29.70
2019-04-07T07:13:32.238Z,28.70
2019-04-07T07:14:36.705Z,29.60
2019-04-07T07:15:26.787Z,34.50
2019-04-07T07:16:26.520Z,28.80
2019-04-07T07:17:26.845Z,28.90
2019-04-07T07:18:27.255Z,28.10
2019-04-07T07:19:28.590Z,29.10
2019-04-07T07:20:28.804Z,29.00
2019-04-07T07:21:27.375Z,28.80
2019-04-07T07:22:26.944Z,30.20
2019-04-07T07:23:27.313Z,29.20
2019-04-07T07:24:27.580Z,29.30
2019-04-07T07:25:29.792Z,28.00
2019-04-07T07:26:26.692Z,28.00
2019-04-07T07:27:27.382Z,29.60
2019-04-07T07:28:27.366Z,27.50
2019-04-07T07:29:26.962Z,27.20
2019-04-07T07:30:27.169Z,26.70
2019-04-07T07:31:26.794Z,26.90
2019-04-07T07:32:26.928Z,27.60
2019-04-07T07:33:27.007Z,28.00
2019-04-07T07:34:27.304Z,26.80
2019-04-07T07:35:27.310Z,25.20
2019-04-07T07:36:27.396Z,27.80
2019-04-07T07:37:26.980Z,27.00
2019-04-07T07:38:30.254Z,25.20
2019-04-07T07:39:27.195Z,25.30
2019-04-07T07:40:27.558Z,25.80
2019-04-07T07:41:26.987Z,28.70
2019-04-07T07:42:27.719Z,26.60
2019-04-07T07:43:29.250Z,27.20
2019-04-07T07:44:27.738Z,28.90
2019-04-07T07:45:27.353Z,27.00
2019-04-07T07:46:27.867Z,25.30
2019-04-07T07:47:27.490Z,27.90
2019-04-07T07:48:28.353Z,25.90
2019-04-07T07:49:30.702Z,27.50
2019-04-07T07:50:28.375Z,24.80
2019-04-07T07:51:27.176Z,24.70
2019-04-07T07:52:27.193Z,24.20
2019-04-07T07:53:28.626Z,24.70
2019-04-07T07:54:28.266Z,25.00
2019-04-07T07:55:27.425Z,25.40
2019-04-07T07:56:27.275Z,23.40
2019-04-07T07:57:27.367Z,27.50
2019-04-07T07:58:30.831Z,24.90
2019-04-07T07:59:30.730Z,25.20
2019-04-07T08:00:27.349Z,25.10
2019-04-07T08:01:27.371Z,24.00
2019-04-07T08:02:29.616Z,24.20
2019-04-07T08:03:27.409Z,23.10
2019-04-07T08:04:27.673Z,29.00
2019-04-07T08:05:31.773Z,22.90
2019-04-07T08:06:27.476Z,23.30
2019-04-07T08:07:28.723Z,23.30
2019-04-07T08:08:27.659Z,23.20
2019-04-07T08:09:28.235Z,22.70
2019-04-07T08:10:27.656Z,22.30
2019-04-07T08:11:30.952Z,24.50
2019-04-07T08:12:28.133Z,22.80
2019-04-07T08:13:27.609Z,22.50
2019-04-07T08:14:28.318Z,22.30
2019-04-07T08:15:31.966Z,22.80
2019-04-07T08:16:31.199Z,22.60
2019-04-07T08:17:27.755Z,22.10
2019-04-07T08:18:27.709Z,22.40
2019-04-07T08:19:29.639Z,22.20
2019-04-07T08:20:28.542Z,23.10
2019-04-07T08:21:28.052Z,22.10
2019-04-07T08:22:33.605Z,22.10
2019-04-07T08:23:28.579Z,23.10
2019-04-07T08:24:28.291Z,22.90
2019-04-07T08:25:28.145Z,22.60
2019-04-07T08:26:27.918Z,22.50
2019-04-07T08:27:31.518Z,22.30
2019-04-07T08:28:27.995Z,24.80
2019-04-07T08:29:28.050Z,22.90
2019-04-07T08:30:28.278Z,23.40
2019-04-07T08:31:28.256Z,21.80
2019-04-07T08:32:30.884Z,20.80
2019-04-07T08:33:29.537Z,21.30
2019-04-07T08:34:30.564Z,19.90
2019-04-07T08:35:28.838Z,21.20
2019-04-07T08:36:28.077Z,20.40
2019-04-07T08:37:28.627Z,19.90
2019-04-07T08:38:28.420Z,19.40
2019-04-07T08:39:32.386Z,20.10
2019-04-07T08:40:28.556Z,20.60
2019-04-07T08:41:28.810Z,21.00
2019-04-07T08:42:28.198Z,24.20
2019-04-07T08:43:28.220Z,21.20
2019-04-07T08:44:29.662Z,22.00
2019-04-07T08:45:29.985Z,20.00
2019-04-07T08:46:30.639Z,19.70
2019-04-07T08:47:28.969Z,20.90
2019-04-07T08:48:28.942Z,21.90
2019-04-07T08:49:28.347Z,19.80
2019-04-07T08:50:28.697Z,21.50
2019-04-07T08:51:30.776Z,22.20
2019-04-07T08:52:28.556Z,24.30
2019-04-07T08:53:28.434Z,24.90
2019-04-07T08:54:28.625Z,21.20
2019-04-07T08:55:28.494Z,20.30
2019-04-07T08:56:29.063Z,20.80
2019-04-07T08:57:30.550Z,23.10
2019-04-07T08:58:30.087Z,20.80
2019-04-07T08:59:29.141Z,23.20
2019-04-07T09:00:29.394Z,20.00
2019-04-07T09:01:29.680Z,21.20
2019-04-07T09:02:30.882Z,21.80
2019-04-07T09:03:29.213Z,20.50
2019-04-07T09:04:29.428Z,20.50
2019-04-07T09:05:31.018Z,21.10
2019-04-07T09:06:29.598Z,21.70
2019-04-07T09:07:28.752Z,22.30
2019-04-07T09:08:29.537Z,21.10
2019-04-07T09:09:33.862Z,21.10
2019-04-07T09:10:28.844Z,20.60
2019-04-07T09:11:29.283Z,21.20
2019-04-07T09:12:30.789Z,22.30
2019-04-07T09:13:31.656Z,21.20
2019-04-07T09:14:29.513Z,19.50
2019-04-07T09:15:28.899Z,21.30
2019-04-07T09:16:29.070Z,21.80
2019-04-07T09:17:33.239Z,20.30
2019-04-07T09:18:28.975Z,20.40
2019-04-07T09:19:28.985Z,24.20
2019-04-07T09:20:29.203Z,22.90
2019-04-07T09:21:38.824Z,20.90
2019-04-07T09:22:30.710Z,22.40
2019-04-07T09:23:29.489Z,22.70
2019-04-07T09:24:31.424Z,20.80
2019-04-07T09:25:31.878Z,21.10
2019-04-07T09:26:29.141Z,25.00
2019-04-07T09:27:29.163Z,20.60
2019-04-07T09:28:29.831Z,20.70
2019-04-07T09:29:30.039Z,19.80
2019-04-07T09:30:29.712Z,19.10
2019-04-07T09:31:29.298Z,18.70
2019-04-07T09:32:30.102Z,18.70
2019-04-07T09:33:29.797Z,18.80
2019-04-07T09:34:29.323Z,20.60
2019-04-07T09:35:29.805Z,21.40
2019-04-07T09:36:31.600Z,19.60
2019-04-07T09:37:29.379Z,19.80
2019-04-07T09:38:29.486Z,19.40
2019-04-07T09:39:34.518Z,21.70
2019-04-07T09:40:30.309Z,22.30
2019-04-07T09:41:29.769Z,19.10
2019-04-07T09:42:29.490Z,23.70
2019-04-07T09:43:30.626Z,19.60
2019-04-07T09:44:34.028Z,22.20
2019-04-07T09:45:29.792Z,23.60
2019-04-07T09:46:29.978Z,21.10
2019-04-07T09:47:30.325Z,21.20
2019-04-07T09:48:29.643Z,19.50
2019-04-07T09:49:29.962Z,18.90
2019-04-07T09:50:29.668Z,18.40
2019-04-07T09:51:29.846Z,18.20
2019-04-07T09:52:30.510Z,19.30
2019-04-07T09:53:30.443Z,21.30
2019-04-07T09:54:29.772Z,18.80
2019-04-07T09:55:30.103Z,18.30
2019-04-07T09:56:32.362Z,18.70
2019-04-07T09:57:30.315Z,17.60
2019-04-07T09:58:29.843Z,18.80
2019-04-07T09:59:30.657Z,16.70
2019-04-07T10:00:30.002Z,17.20
2019-04-07T10:01:30.731Z,17.30
2019-04-07T10:02:33.582Z,45.20
2019-04-07T10:03:29.955Z,23.50
2019-04-07T10:04:29.980Z,16.30
2019-04-07T10:05:30.902Z,18.10
2019-04-07T10:06:30.022Z,17.30
2019-04-07T10:07:30.489Z,18.80
2019-04-07T10:08:30.370Z,16.90
2019-04-07T10:09:30.090Z,17.50
2019-04-07T10:10:30.348Z,16.10
2019-04-07T10:11:30.283Z,16.90
2019-04-07T10:12:30.190Z,17.70
2019-04-07T10:13:30.690Z,17.30
2019-04-07T10:14:30.724Z,17.20
2019-04-07T10:15:30.227Z,17.20
2019-04-07T10:16:32.960Z,17.40
2019-04-07T10:17:30.269Z,17.00
2019-04-07T10:18:32.515Z,18.40
2019-04-07T10:19:30.315Z,18.50
2019-04-07T10:20:30.339Z,16.50
2019-04-07T10:21:31.143Z,18.40
2019-04-07T10:22:30.598Z,17.60
2019-04-07T10:23:30.404Z,18.30
2019-04-07T10:24:31.384Z,18.00
2019-04-07T10:25:30.453Z,17.80
2019-04-07T10:26:31.352Z,17.00
2019-04-07T10:27:31.313Z,18.20
2019-04-07T10:28:31.175Z,26.20
2019-04-07T10:29:30.795Z,17.60
2019-04-07T10:30:30.567Z,18.00
2019-04-07T10:31:30.595Z,20.20
2019-04-07T10:32:30.861Z,20.40
2019-04-07T10:33:31.575Z,20.30
2019-04-07T10:34:30.918Z,16.90
2019-04-07T10:35:30.737Z,19.60
2019-04-07T10:36:30.877Z,20.50
2019-04-07T10:37:31.464Z,19.50
2019-04-07T10:38:31.685Z,20.10
2019-04-07T10:39:30.771Z,18.30
2019-04-07T10:40:31.138Z,20.50
2019-04-07T10:41:31.198Z,17.90
2019-04-07T10:42:30.847Z,20.20
2019-04-07T10:43:31.355Z,19.70
2019-04-07T10:44:31.449Z,19.60
2019-04-07T10:45:30.908Z,18.80
2019-04-07T10:46:30.942Z,19.10
2019-04-07T10:47:30.967Z,22.20
2019-04-07T10:48:31.694Z,19.80
2019-04-07T10:49:31.149Z,18.10
2019-04-07T10:50:31.412Z,17.50
2019-04-07T10:51:31.898Z,21.40
2019-04-07T10:52:31.451Z,19.70
2019-04-07T10:53:32.254Z,17.00
2019-04-07T10:54:31.421Z,18.80
2019-04-07T10:55:31.197Z,18.20
2019-04-07T10:56:31.947Z,20.00
2019-04-07T10:57:31.187Z,19.40
2019-04-07T10:58:31.327Z,19.40
2019-04-07T10:59:32.119Z,19.90
2019-04-07T11:00:31.384Z,19.00
2019-04-07T11:01:32.096Z,20.80
2019-04-07T11:02:31.455Z,24.10
2019-04-07T11:03:31.331Z,19.10
2019-04-07T11:04:31.670Z,20.00
2019-04-07T11:05:31.549Z,20.70
2019-04-07T11:06:31.597Z,19.30
2019-04-07T11:07:31.672Z,20.40
2019-04-07T11:08:32.107Z,19.30
2019-04-07T11:09:31.952Z,19.60
2019-04-07T11:10:36.121Z,21.90
2019-04-07T11:11:31.517Z,21.20
2019-04-07T11:12:31.541Z,20.80
2019-04-07T11:13:32.568Z,19.00
2019-04-07T11:14:31.596Z,18.70
2019-04-07T11:15:31.613Z,19.50
2019-04-07T11:16:31.633Z,19.70
2019-04-07T11:17:31.661Z,19.60
2019-04-07T11:18:31.673Z,20.70
2019-04-07T11:19:32.258Z,21.00
2019-04-07T11:20:31.862Z,19.40
2019-04-07T11:21:31.744Z,20.60
2019-04-07T11:22:31.774Z,19.20
2019-04-07T11:23:31.994Z,18.60
2019-04-07T11:24:31.824Z,20.10
2019-04-07T11:25:32.336Z,20.20
2019-04-07T11:26:31.998Z,20.10
2019-04-07T11:27:31.886Z,19.70
2019-04-07T11:28:31.916Z,21.90
2019-04-07T11:29:32.606Z,20.20
2019-04-07T11:30:31.956Z,21.20
2019-04-07T11:31:32.204Z,21.70
2019-04-07T11:32:32.333Z,23.60
2019-04-07T11:33:32.812Z,24.40
2019-04-07T11:34:33.043Z,19.80
2019-04-07T11:35:32.130Z,22.60
2019-04-07T11:36:32.099Z,20.70
2019-04-07T11:37:32.851Z,21.50
2019-04-07T11:38:32.329Z,23.10
2019-04-07T11:39:32.692Z,21.70
2019-04-07T11:40:41.937Z,20.50
2019-04-07T11:41:32.827Z,19.00
2019-04-07T11:42:33.327Z,20.20
2019-04-07T11:43:32.593Z,20.10
2019-04-07T11:44:32.330Z,19.10
2019-04-07T11:45:32.312Z,22.70
2019-04-07T11:46:32.979Z,20.10
2019-04-07T11:47:32.923Z,21.10
2019-04-07T11:48:33.201Z,21.00
2019-04-07T11:49:32.405Z,18.70
2019-04-07T11:50:32.741Z,19.80
2019-04-07T11:51:32.586Z,19.10
2019-04-07T11:52:33.316Z,21.30
2019-04-07T11:53:33.128Z,18.80
2019-04-07T11:54:32.718Z,23.70
2019-04-07T11:55:33.429Z,18.50
2019-04-07T11:56:32.560Z,17.80
2019-04-07T11:57:33.464Z,18.90
2019-04-07T11:58:34.503Z,21.00
2019-04-07T11:59:32.960Z,20.10
2019-04-07T12:00:33.337Z,20.50
2019-04-07T12:01:32.851Z,20.00
2019-04-07T12:02:33.062Z,20.00
2019-04-07T12:03:32.724Z,19.70
2019-04-07T12:04:32.752Z,19.20
2019-04-07T12:05:33.358Z,17.50
2019-04-07T12:06:33.193Z,18.50
2019-04-07T12:07:33.398Z,19.70
2019-04-07T12:08:36.169Z,17.50
2019-04-07T12:09:33.621Z,18.40
2019-04-07T12:10:33.205Z,18.80
2019-04-07T12:11:32.912Z,17.90
2019-04-07T12:12:32.934Z,19.30
2019-04-07T12:13:33.038Z,19.20
2019-04-07T12:14:33.714Z,20.40
2019-04-07T12:15:33.526Z,21.70
2019-04-07T12:16:33.744Z,20.30
2019-04-07T12:17:33.056Z,19.10
2019-04-07T12:18:33.074Z,18.60
2019-04-07T12:19:33.366Z,22.80
2019-04-07T12:20:34.739Z,21.10
2019-04-07T12:21:36.961Z,18.60
2019-04-07T12:22:33.807Z,20.00
2019-04-07T12:23:33.732Z,17.70
2019-04-07T12:24:33.667Z,18.80
2019-04-07T12:25:33.877Z,18.70
2019-04-07T12:26:37.219Z,17.80
2019-04-07T12:27:33.438Z,20.80
2019-04-07T12:28:33.468Z,20.50
2019-04-07T12:29:34.187Z,20.70
2019-04-07T12:30:33.805Z,23.10
2019-04-07T12:31:33.654Z,21.30
2019-04-07T12:32:34.245Z,16.40
2019-04-07T12:33:37.431Z,20.60
2019-04-07T12:34:34.320Z,19.00
2019-04-07T12:35:34.080Z,19.10
2019-04-07T12:36:34.351Z,20.30
2019-04-07T12:37:38.051Z,18.50
2019-04-07T12:38:33.868Z,14.40
2019-04-07T12:39:34.935Z,15.70
2019-04-07T12:40:34.258Z,18.00
2019-04-07T12:41:33.627Z,18.90
2019-04-07T12:42:37.428Z,18.60
2019-04-07T12:43:33.988Z,17.70
2019-04-07T12:44:34.270Z,16.70
2019-04-07T12:45:35.802Z,18.80
2019-04-07T12:46:34.548Z,17.00
2019-04-07T12:47:34.357Z,16.20
2019-04-07T12:48:33.798Z,14.20
2019-04-07T12:49:35.200Z,16.70
2019-04-07T12:50:33.870Z,16.30
2019-04-07T12:51:33.970Z,16.80
2019-04-07T12:52:33.890Z,14.00